Аэропорт: Пулково. Санкт-Петербург

ICAO: ULLI

METAR:
2019/01/21 22:30
ULLI 212230Z 27005MPS CAVOK M18/M20 Q1015 R28L/420350 R28R/820340 NOSIG
METAR:
2019/01/21 21:21
TAF TAF ULLI 212000Z 2121/2221 27003MPS 4000 -SN BR BKN011 BKN020 
      TEMPO 2121/2124 1000 -SN BR BKN003 
      TEMPO 2200/2208 0300 -SN FZFG OVC002 
      TEMPO 2208/2215 24003MPS 2100 -SHSN BR BKN007 BKN015CB 
      TEMPO 2215/2221 1000 -SN BR BKN003 BKN015